Terminal Aerodrome Forecast
Issued by NWS

Home | Current Version | Previous Version | Text Only | Print | Product List | Glossary On
Versions: 1 2 3 4 5 6 7 8 9 10 11 12 13 14 15 16 17
945
FTUS43 KAPX 211720
TAFMBL
TAF
KMBL 211720Z 2118/2218 VRB03KT P6SM SCT120 BKN200
     FM220300 00000KT P6SM VCSH SCT050 OVC100
     FM221400 33005KT P6SM -SHRA VCTS SCT025 OVC040CB=

USA.gov is the U.S. government's official web portal to all federal, state and local government web resources and services.